createdAt,value
2023-02-11T00:01:16.712Z,100206.02
2023-02-11T00:03:43.802Z,100201.52
2023-02-11T00:06:11.980Z,100200.00
2023-02-11T00:08:39.776Z,100199.39
2023-02-11T00:11:07.248Z,100195.25
2023-02-11T00:13:34.529Z,100193.85
2023-02-11T00:16:07.378Z,100191.86
2023-02-11T00:18:34.424Z,100193.95
2023-02-11T00:21:10.212Z,100189.27
2023-02-11T00:23:38.048Z,100190.46
2023-02-11T00:26:12.255Z,100195.02
2023-02-11T00:28:39.193Z,100197.98
2023-02-11T00:31:06.322Z,100199.36
2023-02-11T00:33:33.278Z,100197.52
2023-02-11T00:36:08.681Z,100193.30
2023-02-11T00:38:36.179Z,100187.49
2023-02-11T00:41:03.026Z,100187.94
2023-02-11T00:43:29.956Z,100183.42
2023-02-11T00:45:57.260Z,100186.07
2023-02-11T00:48:24.527Z,100179.95
2023-02-11T00:50:51.645Z,100178.12
2023-02-11T00:53:18.999Z,100174.48
2023-02-11T00:55:46.013Z,100169.33
2023-02-11T00:58:13.004Z,100162.88
2023-02-11T01:00:40.502Z,100155.63
2023-02-11T01:03:07.454Z,100150.42
2023-02-11T01:05:35.847Z,100145.91
2023-02-11T01:08:03.971Z,100144.46
2023-02-11T01:10:31.407Z,100130.98
2023-02-11T01:12:58.449Z,100114.11
2023-02-11T01:15:25.891Z,100109.30
2023-02-11T01:17:53.013Z,100088.48
2023-02-11T01:20:24.252Z,100083.95
2023-02-11T01:22:51.097Z,100079.36
2023-02-11T01:25:18.050Z,100078.30
2023-02-11T01:27:45.017Z,100071.98
2023-02-11T01:30:14.381Z,100068.32
2023-02-11T01:32:41.819Z,100057.89
2023-02-11T01:35:09.255Z,100061.30
2023-02-11T01:37:36.691Z,100071.37
2023-02-11T01:40:07.491Z,100072.34
2023-02-11T01:42:34.533Z,100069.21
2023-02-11T01:45:22.239Z,100072.61
2023-02-11T01:47:49.089Z,100072.05
2023-02-11T01:50:16.608Z,100076.59
2023-02-11T01:52:46.625Z,100075.95
2023-02-11T01:55:33.410Z,100069.23
2023-02-11T01:58:05.165Z,100062.67
2023-02-11T02:00:39.537Z,100064.70
2023-02-11T02:03:11.722Z,100062.48
2023-02-11T02:05:58.431Z,100059.48
2023-02-11T02:08:47.009Z,100062.96
2023-02-11T02:11:14.099Z,100061.01
2023-02-11T02:13:41.039Z,100059.02
2023-02-11T02:16:18.139Z,100056.45
2023-02-11T02:19:31.493Z,100054.29
2023-02-11T02:22:07.965Z,100052.03
2023-02-11T02:25:01.296Z,100037.83
2023-02-11T02:27:48.531Z,100028.70
2023-02-11T02:30:33.761Z,100011.39
2023-02-11T02:33:34.326Z,100007.80
2023-02-11T02:36:48.239Z,99996.44
2023-02-11T02:39:21.804Z,99982.81
2023-02-11T02:41:51.244Z,99965.29
2023-02-11T02:44:20.070Z,99956.98
2023-02-11T02:46:47.407Z,99953.89
2023-02-11T02:49:16.686Z,99954.10
2023-02-11T02:52:16.289Z,99954.25
2023-02-11T02:55:12.819Z,99957.59
2023-02-11T02:58:35.778Z,99951.92
2023-02-11T03:01:14.661Z,99950.67
2023-02-11T03:03:51.332Z,99933.42
2023-02-11T03:06:47.013Z,99928.23
2023-02-11T03:09:25.809Z,99921.58
2023-02-11T03:11:53.086Z,99917.45
2023-02-11T03:14:22.606Z,99925.72
2023-02-11T03:16:51.250Z,99941.73
2023-02-11T03:19:23.173Z,99939.81
2023-02-11T03:21:52.693Z,99935.98
2023-02-11T03:24:41.325Z,99937.27
2023-02-11T03:27:44.609Z,99937.85
2023-02-11T03:30:26.962Z,99936.82
2023-02-11T03:32:59.571Z,99935.08
2023-02-11T03:35:36.935Z,99940.80
2023-02-11T03:38:18.047Z,99943.43
2023-02-11T03:40:46.064Z,99941.25
2023-02-11T03:43:26.369Z,99939.04
2023-02-11T03:45:55.619Z,99929.38
2023-02-11T03:48:33.890Z,99920.52
2023-02-11T03:51:05.418Z,99917.63
2023-02-11T03:53:32.536Z,99904.80
2023-02-11T03:56:05.740Z,99903.31
2023-02-11T03:58:32.688Z,99895.54
2023-02-11T04:00:59.918Z,99891.90
2023-02-11T04:03:26.821Z,99882.11
2023-02-11T04:05:54.527Z,99864.20
2023-02-11T04:08:21.807Z,99852.63
2023-02-11T04:10:48.901Z,99849.30
2023-02-11T04:13:15.902Z,99850.31
2023-02-11T04:15:42.928Z,99840.61
2023-02-11T04:18:10.213Z,99827.38
2023-02-11T04:20:37.086Z,99824.75
2023-02-11T04:23:04.292Z,99827.27
2023-02-11T04:25:31.406Z,99830.22
2023-02-11T04:27:58.705Z,99817.02
2023-02-11T04:30:25.664Z,99810.42
2023-02-11T04:32:54.551Z,99799.80
2023-02-11T04:35:22.052Z,99800.13
2023-02-11T04:37:48.851Z,99798.10
2023-02-11T04:40:15.981Z,99802.73
2023-02-11T04:42:42.939Z,99809.86
2023-02-11T04:45:10.500Z,99809.70
2023-02-11T04:47:38.288Z,99803.25
2023-02-11T04:50:06.031Z,99799.45
2023-02-11T04:52:33.329Z,99804.05
2023-02-11T04:55:00.371Z,99804.30
2023-02-11T04:57:27.493Z,99811.91
2023-02-11T04:59:54.309Z,99818.89
2023-02-11T05:02:21.728Z,99831.27
2023-02-11T05:04:48.768Z,99834.58
2023-02-11T05:07:15.895Z,99826.64
2023-02-11T05:09:43.171Z,99816.12
2023-02-11T05:12:10.212Z,99818.20
2023-02-11T05:14:37.259Z,99818.86
2023-02-11T05:17:04.611Z,99820.48
2023-02-11T05:19:32.306Z,99817.66
2023-02-11T05:22:03.059Z,99805.70
2023-02-11T05:24:32.780Z,99808.48
2023-02-11T05:27:00.402Z,99807.05
2023-02-11T05:29:27.892Z,99798.54
2023-02-11T05:31:55.181Z,99790.59
2023-02-11T05:34:22.158Z,99795.55
2023-02-11T05:36:49.251Z,99798.61
2023-02-11T05:39:16.246Z,99792.69
2023-02-11T05:41:43.248Z,99791.77
2023-02-11T05:44:10.687Z,99795.96
2023-02-11T05:46:37.720Z,99792.95
2023-02-11T05:49:05.142Z,99797.08
2023-02-11T05:51:32.448Z,99787.39
2023-02-11T05:53:59.489Z,99788.73
2023-02-11T05:56:26.481Z,99782.43
2023-02-11T05:58:53.569Z,99790.83
2023-02-11T06:01:20.787Z,99798.52
2023-02-11T06:03:50.496Z,99804.11
2023-02-11T06:06:18.049Z,99809.15
2023-02-11T06:08:44.982Z,99816.82
2023-02-11T06:11:11.724Z,99816.52
2023-02-11T06:13:38.941Z,99810.55
2023-02-11T06:16:06.419Z,99806.88
2023-02-11T06:18:34.128Z,99798.52
2023-02-11T06:21:01.035Z,99790.98
2023-02-11T06:23:30.229Z,99787.13
2023-02-11T06:26:02.705Z,99781.45
2023-02-11T06:28:31.872Z,99777.73
2023-02-11T06:31:00.280Z,99769.05
2023-02-11T06:33:27.113Z,99767.09
2023-02-11T06:35:53.848Z,99760.87
2023-02-11T06:38:23.779Z,99759.84
2023-02-11T06:40:51.118Z,99754.00
2023-02-11T06:43:18.157Z,99751.14
2023-02-11T06:45:45.249Z,99761.49
2023-02-11T06:48:12.375Z,99771.84
2023-02-11T06:50:39.572Z,99773.54
2023-02-11T06:53:06.549Z,99774.52
2023-02-11T06:55:35.450Z,99775.52
2023-02-11T06:58:02.533Z,99777.14
2023-02-11T07:00:29.978Z,99780.88
2023-02-11T07:02:57.439Z,99772.50
2023-02-11T07:05:24.644Z,99772.80
2023-02-11T07:07:51.653Z,99769.67
2023-02-11T07:10:18.732Z,99767.75
2023-02-11T07:12:45.730Z,99769.52
2023-02-11T07:15:12.930Z,99775.77
2023-02-11T07:17:39.868Z,99778.58
2023-02-11T07:20:07.492Z,99770.20
2023-02-11T07:22:35.290Z,99766.65
2023-02-11T07:25:02.337Z,99767.85
2023-02-11T07:27:29.393Z,99771.75
2023-02-11T07:29:56.369Z,99763.95
2023-02-11T07:32:23.334Z,99760.92
2023-02-11T07:34:50.476Z,99763.75
2023-02-11T07:37:17.586Z,99763.83
2023-02-11T07:39:44.501Z,99759.09
2023-02-11T07:42:11.866Z,99765.06
2023-02-11T07:44:39.171Z,99759.30
2023-02-11T07:47:06.082Z,99755.23
2023-02-11T07:49:33.093Z,99750.81
2023-02-11T07:52:00.299Z,99750.02
2023-02-11T07:54:27.745Z,99752.89
2023-02-11T07:56:54.649Z,99751.25
2023-02-11T07:59:21.784Z,99746.21
2023-02-11T08:01:49.115Z,99739.95
2023-02-11T08:04:16.183Z,99732.26
2023-02-11T08:06:44.380Z,99730.38
2023-02-11T08:09:19.249Z,99722.85
2023-02-11T08:11:46.331Z,99727.02
2023-02-11T08:14:13.385Z,99728.16
2023-02-11T08:16:40.999Z,99732.07
2023-02-11T08:19:13.027Z,99735.58
2023-02-11T08:21:40.854Z,99745.36
2023-02-11T08:24:08.410Z,99744.25
2023-02-11T08:26:36.582Z,99742.13
2023-02-11T08:29:14.703Z,99747.06
2023-02-11T08:31:45.072Z,99750.03
2023-02-11T08:34:14.949Z,99754.89
2023-02-11T08:36:43.305Z,99750.02
2023-02-11T08:39:20.029Z,99754.92
2023-02-11T08:41:50.626Z,99761.56
2023-02-11T08:44:19.175Z,99760.95
2023-02-11T08:46:47.503Z,99762.30
2023-02-11T08:49:15.268Z,99758.16
2023-02-11T08:51:43.077Z,99754.80
2023-02-11T08:54:10.699Z,99753.12
2023-02-11T08:56:39.596Z,99738.48
2023-02-11T08:59:07.587Z,99738.56
2023-02-11T09:01:34.725Z,99726.80
2023-02-11T09:04:02.133Z,99724.02
2023-02-11T09:06:29.752Z,99725.48
2023-02-11T09:08:58.338Z,99724.70
2023-02-11T09:11:29.621Z,99730.83
2023-02-11T09:13:57.486Z,99722.20
2023-02-11T09:16:27.922Z,99722.84
2023-02-11T09:18:57.886Z,99716.07
2023-02-11T09:21:25.589Z,99715.67
2023-02-11T09:23:53.170Z,99724.66
2023-02-11T09:26:25.904Z,99733.94
2023-02-11T09:28:53.340Z,99731.60
2023-02-11T09:31:23.249Z,99732.81
2023-02-11T09:33:52.703Z,99743.38
2023-02-11T09:36:23.656Z,99755.36
2023-02-11T09:38:51.598Z,99767.44
2023-02-11T09:41:24.607Z,99771.65
2023-02-11T09:43:55.327Z,99764.75
2023-02-11T09:46:24.971Z,99758.70
2023-02-11T09:48:56.136Z,99767.35
2023-02-11T09:51:45.090Z,99769.09
2023-02-11T09:54:20.277Z,99766.29
2023-02-11T09:56:47.409Z,99762.70
2023-02-11T09:59:16.248Z,99765.59
2023-02-11T10:01:55.372Z,99766.09
2023-02-11T10:04:45.030Z,99757.60
2023-02-11T10:07:17.889Z,99757.02
2023-02-11T10:10:03.097Z,99760.23
2023-02-11T10:12:38.747Z,99753.08
2023-02-11T10:15:18.281Z,99749.70
2023-02-11T10:17:57.021Z,99741.06
2023-02-11T10:21:12.183Z,99736.20
2023-02-11T10:23:43.170Z,99729.41
2023-02-11T10:26:19.045Z,99715.56
2023-02-11T10:28:53.503Z,99712.30
2023-02-11T10:31:27.316Z,99706.89
2023-02-11T10:34:07.291Z,99707.65
2023-02-11T10:36:37.170Z,99710.61
2023-02-11T10:39:19.425Z,99699.71
2023-02-11T10:41:47.669Z,99691.78
2023-02-11T10:44:42.828Z,99674.84
2023-02-11T10:47:17.553Z,99659.73
2023-02-11T10:49:46.316Z,99650.76
2023-02-11T10:52:18.134Z,99634.55
2023-02-11T10:54:58.371Z,99619.52
2023-02-11T10:57:31.695Z,99604.58
2023-02-11T11:00:02.699Z,99601.02
2023-02-11T11:02:34.888Z,99598.09
2023-02-11T11:05:20.290Z,99592.52
2023-02-11T11:08:00.110Z,99582.77
2023-02-11T11:10:46.220Z,99589.55
2023-02-11T11:13:29.273Z,99586.91
2023-02-11T11:16:12.786Z,99591.23
2023-02-11T11:18:41.423Z,99590.14
2023-02-11T11:21:16.536Z,99597.67
2023-02-11T11:23:51.982Z,99598.85
2023-02-11T11:26:19.892Z,99599.21
2023-02-11T11:28:49.851Z,99601.92
2023-02-11T11:31:23.080Z,99604.15
2023-02-11T11:33:53.894Z,99610.24
2023-02-11T11:36:24.452Z,99602.10
2023-02-11T11:38:57.011Z,99591.81
2023-02-11T11:41:28.445Z,99583.80
2023-02-11T11:44:00.305Z,99582.98
2023-02-11T11:46:37.048Z,99581.86
2023-02-11T11:49:23.540Z,99584.35
2023-02-11T11:52:14.367Z,99581.58
2023-02-11T11:54:46.612Z,99587.27
2023-02-11T11:57:20.533Z,99591.50
2023-02-11T11:59:48.277Z,99591.69
2023-02-11T12:02:43.568Z,99594.83
2023-02-11T12:05:48.603Z,99593.31
2023-02-11T12:08:44.054Z,99600.70
2023-02-11T12:11:39.029Z,99608.94
2023-02-11T12:14:35.497Z,99602.02
2023-02-11T12:17:31.580Z,99588.07
2023-02-11T12:20:08.523Z,99575.84
2023-02-11T12:22:54.253Z,99579.83
2023-02-11T12:25:44.747Z,99592.90
2023-02-11T12:28:30.261Z,99603.87
2023-02-11T12:31:11.344Z,99611.03
2023-02-11T12:33:39.769Z,99613.61
2023-02-11T12:36:22.216Z,99613.05
2023-02-11T12:39:04.867Z,99604.18
2023-02-11T12:42:25.589Z,99604.02
2023-02-11T12:45:11.724Z,99599.03
2023-02-11T12:48:13.404Z,99598.67
2023-02-11T12:51:00.604Z,99598.00
2023-02-11T12:53:43.645Z,99600.85
2023-02-11T12:56:22.093Z,99603.91
2023-02-11T12:58:55.170Z,99582.50
2023-02-11T13:01:44.659Z,99566.30
2023-02-11T13:04:29.208Z,99557.62
2023-02-11T13:07:02.606Z,99546.73
2023-02-11T13:09:39.374Z,99527.98
2023-02-11T13:12:27.250Z,99522.41
2023-02-11T13:14:59.760Z,99506.63
2023-02-11T13:17:34.300Z,99495.66
2023-02-11T13:20:45.809Z,99489.50
2023-02-11T13:23:15.698Z,99498.23
2023-02-11T13:25:55.178Z,99510.77
2023-02-11T13:29:04.292Z,99523.08
2023-02-11T13:31:32.249Z,99515.94
2023-02-11T13:33:59.283Z,99520.08
2023-02-11T13:36:28.956Z,99530.63
2023-02-11T13:39:21.418Z,99532.89
2023-02-11T13:41:52.629Z,99537.98
2023-02-11T13:44:25.360Z,99528.98
2023-02-11T13:47:02.270Z,99529.63
2023-02-11T13:49:35.808Z,99524.59
2023-02-11T13:52:06.855Z,99502.70
2023-02-11T13:54:38.820Z,99472.83
2023-02-11T13:57:20.849Z,99457.64
2023-02-11T13:59:52.354Z,99453.34
2023-02-11T14:02:47.881Z,99455.80
2023-02-11T14:05:42.284Z,99459.98
2023-02-11T14:08:30.747Z,99467.73
2023-02-11T14:11:12.926Z,99470.35
2023-02-11T14:13:49.177Z,99481.44
2023-02-11T14:16:35.242Z,99485.70
2023-02-11T14:19:04.505Z,99493.13
2023-02-11T14:21:43.421Z,99497.92
2023-02-11T14:24:11.408Z,99494.77
2023-02-11T14:26:59.606Z,99497.62
2023-02-11T14:29:26.644Z,99499.88
2023-02-11T14:31:56.853Z,99500.20
2023-02-11T14:34:47.174Z,99500.73
2023-02-11T14:37:36.413Z,99506.95
2023-02-11T14:40:05.606Z,99511.39
2023-02-11T14:42:32.791Z,99508.77
2023-02-11T14:45:07.013Z,99503.94
2023-02-11T14:48:09.182Z,99503.48
2023-02-11T14:50:58.530Z,99498.34
2023-02-11T14:53:28.771Z,99498.38
2023-02-11T14:55:56.178Z,99499.73
2023-02-11T14:58:23.122Z,99504.55
2023-02-11T15:01:01.976Z,99502.56
2023-02-11T15:03:29.251Z,99503.16
2023-02-11T15:06:00.608Z,99503.30
2023-02-11T15:08:29.025Z,99503.01
2023-02-11T15:10:57.106Z,99504.57
2023-02-11T15:13:27.326Z,99502.23
2023-02-11T15:16:19.888Z,99508.13
2023-02-11T15:18:59.009Z,99520.44
2023-02-11T15:21:31.625Z,99525.67
2023-02-11T15:24:21.093Z,99521.06
2023-02-11T15:26:58.529Z,99528.78
2023-02-11T15:29:27.375Z,99541.39
2023-02-11T15:32:16.036Z,99549.88
2023-02-11T15:34:44.633Z,99548.44
2023-02-11T15:37:25.340Z,99553.92
2023-02-11T15:39:54.378Z,99550.52
2023-02-11T15:42:31.433Z,99551.35
2023-02-11T15:45:29.448Z,99555.58
2023-02-11T15:48:00.177Z,99559.44
2023-02-11T15:50:31.312Z,99562.95
2023-02-11T15:53:02.622Z,99564.33
2023-02-11T15:55:30.779Z,99565.32
2023-02-11T15:58:00.938Z,99566.36
2023-02-11T16:00:50.622Z,99565.31
2023-02-11T16:03:24.619Z,99573.89
2023-02-11T16:05:52.137Z,99575.54
2023-02-11T16:08:29.584Z,99576.59
2023-02-11T16:11:00.140Z,99574.54
2023-02-11T16:13:29.906Z,99574.85
2023-02-11T16:16:02.747Z,99576.95
2023-02-11T16:18:39.080Z,99578.94
2023-02-11T16:21:14.865Z,99583.31
2023-02-11T16:23:42.871Z,99585.72
2023-02-11T16:26:26.147Z,99587.29
2023-02-11T16:28:54.288Z,99588.36
2023-02-11T16:31:21.612Z,99584.45
2023-02-11T16:33:48.570Z,99583.13
2023-02-11T16:36:19.544Z,99584.07
2023-02-11T16:38:46.549Z,99588.70
2023-02-11T16:41:13.729Z,99585.92
2023-02-11T16:43:40.948Z,99586.42
2023-02-11T16:46:09.969Z,99587.46
2023-02-11T16:48:38.308Z,99586.67
2023-02-11T16:51:05.562Z,99591.66
2023-02-11T16:53:32.773Z,99594.34
2023-02-11T16:55:59.891Z,99597.61
2023-02-11T16:58:27.105Z,99597.27
2023-02-11T17:00:54.503Z,99599.33
2023-02-11T17:03:27.478Z,99603.38
2023-02-11T17:05:56.526Z,99609.75
2023-02-11T17:08:23.822Z,99610.70
2023-02-11T17:10:51.016Z,99615.05
2023-02-11T17:13:18.392Z,99614.23
2023-02-11T17:15:45.533Z,99602.94
2023-02-11T17:18:14.722Z,99603.35
2023-02-11T17:20:41.747Z,99607.84
2023-02-11T17:23:09.504Z,99609.94
2023-02-11T17:25:40.977Z,99612.85
2023-02-11T17:28:09.547Z,99610.73
2023-02-11T17:30:36.923Z,99608.06
2023-02-11T17:33:04.053Z,99618.79
2023-02-11T17:35:31.483Z,99619.11
2023-02-11T17:37:59.480Z,99621.23
2023-02-11T17:40:27.293Z,99616.46
2023-02-11T17:42:54.445Z,99618.86
2023-02-11T17:45:22.475Z,99621.20
2023-02-11T17:47:49.885Z,99624.42
2023-02-11T17:50:17.089Z,99616.13
2023-02-11T17:52:44.414Z,99619.23
2023-02-11T17:55:11.866Z,99620.55
2023-02-11T17:57:39.125Z,99623.14
2023-02-11T18:00:08.862Z,99623.98
2023-02-11T18:02:35.996Z,99621.17
2023-02-11T18:05:03.951Z,99625.23
2023-02-11T18:07:30.886Z,99620.44
2023-02-11T18:09:57.855Z,99608.25
2023-02-11T18:12:27.667Z,99616.44
2023-02-11T18:14:57.892Z,99614.63
2023-02-11T18:17:25.627Z,99609.38
2023-02-11T18:19:57.187Z,99613.06
2023-02-11T18:22:24.828Z,99617.39
2023-02-11T18:24:53.817Z,99614.36
2023-02-11T18:27:22.161Z,99618.56
2023-02-11T18:29:49.041Z,99617.27
2023-02-11T18:32:16.448Z,99616.48
2023-02-11T18:34:43.504Z,99619.38
2023-02-11T18:37:11.734Z,99624.73
2023-02-11T18:39:39.091Z,99627.75
2023-02-11T18:42:06.417Z,99630.92
2023-02-11T18:44:33.730Z,99635.38
2023-02-11T18:47:01.424Z,99632.71
2023-02-11T18:49:28.879Z,99633.76
2023-02-11T18:51:55.970Z,99639.44
2023-02-11T18:54:23.076Z,99639.09
2023-02-11T18:56:50.371Z,99639.39
2023-02-11T18:59:17.483Z,99639.02
2023-02-11T19:01:47.305Z,99637.25
2023-02-11T19:04:19.292Z,99637.71
2023-02-11T19:06:49.776Z,99643.39
2023-02-11T19:09:19.756Z,99645.07
2023-02-11T19:11:47.609Z,99645.92
2023-02-11T19:14:34.560Z,99645.62
2023-02-11T19:17:05.312Z,99647.77
2023-02-11T19:19:34.794Z,99647.15
2023-02-11T19:22:03.748Z,99647.73
2023-02-11T19:24:31.141Z,99647.39
2023-02-11T19:27:00.456Z,99651.98
2023-02-11T19:29:28.551Z,99650.46
2023-02-11T19:31:56.312Z,99656.75
2023-02-11T19:34:24.403Z,99656.87
2023-02-11T19:36:51.818Z,99656.68
2023-02-11T19:39:19.169Z,99661.36
2023-02-11T19:41:47.752Z,99665.10
2023-02-11T19:44:17.969Z,99663.45
2023-02-11T19:46:46.326Z,99661.10
2023-02-11T19:49:16.927Z,99659.80
2023-02-11T19:51:44.553Z,99663.02
2023-02-11T19:54:11.888Z,99660.73
2023-02-11T19:56:39.254Z,99663.92
2023-02-11T19:59:09.170Z,99658.92
2023-02-11T20:01:37.159Z,99659.92
2023-02-11T20:04:04.052Z,99661.02
2023-02-11T20:06:32.875Z,99665.20
2023-02-11T20:09:03.109Z,99663.45
2023-02-11T20:11:31.981Z,99659.50
2023-02-11T20:13:59.824Z,99667.13
2023-02-11T20:16:41.008Z,99662.12
2023-02-11T20:19:18.349Z,99660.63
2023-02-11T20:21:48.547Z,99661.23
2023-02-11T20:24:17.571Z,99661.80
2023-02-11T20:26:46.700Z,99665.95
2023-02-11T20:29:13.673Z,99662.45
2023-02-11T20:31:40.650Z,99665.10
2023-02-11T20:34:07.740Z,99668.33
2023-02-11T20:36:37.748Z,99667.48
2023-02-11T20:39:06.488Z,99666.65
2023-02-11T20:41:35.806Z,99663.95
2023-02-11T20:44:05.901Z,99671.46
2023-02-11T20:46:35.053Z,99672.30
2023-02-11T20:49:02.547Z,99678.92
2023-02-11T20:51:32.847Z,99676.69
2023-02-11T20:54:00.786Z,99680.73
2023-02-11T20:56:31.661Z,99683.18
2023-02-11T20:59:00.165Z,99684.42
2023-02-11T21:01:31.063Z,99683.80
2023-02-11T21:03:57.978Z,99684.86
2023-02-11T21:06:27.897Z,99688.30
2023-02-11T21:08:54.781Z,99687.94
2023-02-11T21:11:21.658Z,99696.04
2023-02-11T21:13:49.087Z,99702.46
2023-02-11T21:16:20.706Z,99704.27
2023-02-11T21:18:49.004Z,99709.30
2023-02-11T21:21:17.600Z,99710.56
2023-02-11T21:23:45.019Z,99707.98
2023-02-11T21:26:12.138Z,99708.61
2023-02-11T21:28:41.044Z,99712.46
2023-02-11T21:31:09.932Z,99707.33
2023-02-11T21:33:37.137Z,99712.81
2023-02-11T21:36:08.041Z,99722.41
2023-02-11T21:38:35.428Z,99728.09
2023-02-11T21:41:06.623Z,99730.20
2023-02-11T21:43:34.059Z,99731.79
2023-02-11T21:46:01.415Z,99737.56
2023-02-11T21:48:28.709Z,99741.16
2023-02-11T21:50:55.575Z,99744.95
2023-02-11T21:53:22.494Z,99747.42
2023-02-11T21:55:54.854Z,99753.58
2023-02-11T21:58:22.011Z,99754.32
2023-02-11T22:00:48.898Z,99759.07
2023-02-11T22:03:15.981Z,99758.84
2023-02-11T22:05:43.043Z,99761.52
2023-02-11T22:08:10.053Z,99760.98
2023-02-11T22:10:37.093Z,99761.11
2023-02-11T22:13:03.982Z,99764.52
2023-02-11T22:15:31.186Z,99767.60
2023-02-11T22:17:58.214Z,99764.21
2023-02-11T22:20:25.574Z,99759.28
2023-02-11T22:22:52.563Z,99764.78
2023-02-11T22:25:19.607Z,99768.78
2023-02-11T22:27:46.613Z,99769.01
2023-02-11T22:30:14.465Z,99771.41
2023-02-11T22:32:42.765Z,99781.91
2023-02-11T22:35:09.890Z,99784.25
2023-02-11T22:37:36.942Z,99786.72
2023-02-11T22:40:04.325Z,99788.54
2023-02-11T22:42:31.168Z,99788.91
2023-02-11T22:44:58.389Z,99789.85
2023-02-11T22:47:25.459Z,99789.20
2023-02-11T22:49:52.405Z,99789.45
2023-02-11T22:52:19.324Z,99791.77
2023-02-11T22:54:47.614Z,99795.93
2023-02-11T22:57:14.705Z,99802.40
2023-02-11T22:59:42.020Z,99800.84
2023-02-11T23:02:09.072Z,99802.94
2023-02-11T23:04:36.114Z,99803.56
2023-02-11T23:07:03.164Z,99806.80
2023-02-11T23:09:30.108Z,99810.98
2023-02-11T23:11:58.178Z,99812.73
2023-02-11T23:14:25.912Z,99810.80
2023-02-11T23:16:53.073Z,99815.44
2023-02-11T23:19:20.323Z,99814.73
2023-02-11T23:21:51.747Z,99816.60
2023-02-11T23:24:18.716Z,99814.05
2023-02-11T23:26:46.184Z,99819.16
2023-02-11T23:29:13.665Z,99820.29
2023-02-11T23:31:44.170Z,99823.27
2023-02-11T23:34:12.470Z,99821.81
2023-02-11T23:36:39.373Z,99825.45
2023-02-11T23:39:06.626Z,99831.15
2023-02-11T23:41:33.834Z,99829.91
2023-02-11T23:44:01.331Z,99837.38
2023-02-11T23:46:28.766Z,99837.84
2023-02-11T23:48:56.243Z,99828.14
2023-02-11T23:51:24.154Z,99823.80
2023-02-11T23:53:52.910Z,99829.67
2023-02-11T23:56:26.281Z,99831.77
2023-02-11T23:58:56.349Z,99832.19
